Wyatt, Missouri
Current Conditions -  °F | °C
As of 8:35 AM on Tuesday 27 Jan 2015 (Local Time) from KCIR Reporting Station
Clear Clear  
Wind Chill: 39°   Ceiling: Unl
Heat Index: 39°   Visibility: 10mi
Dew Point: 36°   Wind: 3mph
Humidity: 89%   Direction: 260°W
Pressure: 30.1"   Gusts: NA
Location:  36.91°N, 89.22°W
Report Text: KCIR 271435Z AUTO 26003KT 10SM CLR 04/02 A3010 RMK AO2 T00370021
Loading
Personal Weather Stations






























Interactive Weather Map New forecast layout! Learn more

10-Day Weather Forecast

Advertisements
Track Severe Weather on mobile